createdAt,value
2023-01-13T00:01:50.303Z,2.33
2023-01-13T00:04:17.064Z,2.67
2023-01-13T00:06:43.731Z,2.05
2023-01-13T00:09:10.383Z,3.13
2023-01-13T00:11:38.514Z,5.03
2023-01-13T00:14:05.371Z,4.15
2023-01-13T00:16:32.074Z,2.63
2023-01-13T00:18:58.732Z,1.77
2023-01-13T00:21:25.479Z,2.95
2023-01-13T00:23:53.173Z,3.60
2023-01-13T00:26:21.484Z,2.60
2023-01-13T00:28:50.248Z,2.60
2023-01-13T00:31:19.141Z,4.47
2023-01-13T00:33:46.020Z,4.03
2023-01-13T00:36:14.741Z,3.42
2023-01-13T00:38:42.315Z,4.15
2023-01-13T00:41:11.498Z,3.47
2023-01-13T00:43:38.561Z,5.32
2023-01-13T00:46:08.855Z,2.17
2023-01-13T00:48:36.441Z,2.33
2023-01-13T00:51:04.959Z,3.08
2023-01-13T00:53:35.637Z,1.92
2023-01-13T00:56:03.876Z,2.15
2023-01-13T00:58:32.435Z,2.25
2023-01-13T01:01:00.707Z,2.22
2023-01-13T01:03:29.156Z,3.17
2023-01-13T01:05:55.905Z,3.15
2023-01-13T01:08:22.919Z,3.50
2023-01-13T01:10:49.616Z,1.98
2023-01-13T01:13:16.321Z,1.52
2023-01-13T01:15:43.295Z,3.67
2023-01-13T01:18:10.079Z,2.15
2023-01-13T01:20:38.334Z,4.63
2023-01-13T01:23:04.976Z,4.22
2023-01-13T01:25:32.668Z,3.03
2023-01-13T01:28:00.048Z,2.60
2023-01-13T01:30:26.784Z,4.43
2023-01-13T01:32:53.505Z,2.47
2023-01-13T01:35:20.152Z,3.65
2023-01-13T01:37:48.229Z,2.50
2023-01-13T01:40:15.137Z,2.45
2023-01-13T01:42:41.908Z,4.68
2023-01-13T01:45:17.617Z,3.53
2023-01-13T01:47:48.094Z,2.83
2023-01-13T01:50:15.461Z,3.55
2023-01-13T01:52:46.514Z,3.13
2023-01-13T01:55:18.181Z,3.15
2023-01-13T01:57:50.580Z,2.65
2023-01-13T02:00:17.545Z,3.63
2023-01-13T02:02:47.434Z,2.35
2023-01-13T02:05:14.356Z,1.38
2023-01-13T02:07:43.096Z,2.83
2023-01-13T02:10:12.683Z,2.28
2023-01-13T02:12:43.801Z,3.78
2023-01-13T02:15:13.175Z,3.03
2023-01-13T02:18:16.820Z,3.70
2023-01-13T02:20:59.023Z,2.05
2023-01-13T02:23:56.185Z,4.95
2023-01-13T02:27:04.791Z,4.00
2023-01-13T02:29:57.220Z,1.67
2023-01-13T02:32:29.729Z,2.80
2023-01-13T02:35:04.570Z,2.90
2023-01-13T02:37:34.430Z,2.95
2023-01-13T02:40:06.657Z,1.20
2023-01-13T02:42:34.909Z,2.78
2023-01-13T02:45:08.895Z,4.97
2023-01-13T02:47:37.751Z,1.58
2023-01-13T02:50:10.171Z,2.15
2023-01-13T02:52:40.836Z,2.45
2023-01-13T02:55:12.148Z,1.75
2023-01-13T02:57:41.002Z,3.08
2023-01-13T03:00:12.325Z,2.00
2023-01-13T03:02:39.127Z,1.75
2023-01-13T03:05:06.548Z,3.05
2023-01-13T03:08:04.813Z,3.58
2023-01-13T03:10:44.073Z,1.40
2023-01-13T03:13:42.592Z,2.85
2023-01-13T03:16:20.931Z,2.88
2023-01-13T03:18:55.785Z,2.08
2023-01-13T03:21:28.738Z,2.25
2023-01-13T03:24:01.055Z,1.08
2023-01-13T03:26:33.355Z,1.52
2023-01-13T03:29:06.672Z,2.78
2023-01-13T03:31:41.591Z,2.67
2023-01-13T03:34:14.911Z,2.40
2023-01-13T03:36:44.091Z,2.08
2023-01-13T03:39:14.318Z,1.95
2023-01-13T03:41:45.990Z,1.77
2023-01-13T03:44:17.232Z,1.80
2023-01-13T03:46:49.234Z,2.33
2023-01-13T03:49:20.180Z,3.58
2023-01-13T03:51:52.335Z,2.15
2023-01-13T03:54:20.715Z,1.40
2023-01-13T03:56:52.073Z,2.70
2023-01-13T03:59:23.789Z,1.60
2023-01-13T04:01:59.737Z,1.70
2023-01-13T04:04:31.289Z,2.33
2023-01-13T04:07:07.473Z,2.72
2023-01-13T04:09:39.885Z,1.77
2023-01-13T04:12:10.919Z,2.65
2023-01-13T04:14:38.834Z,2.28
2023-01-13T04:17:06.905Z,2.80
2023-01-13T04:19:33.718Z,1.67
2023-01-13T04:22:00.436Z,3.35
2023-01-13T04:24:27.171Z,2.17
2023-01-13T04:26:53.908Z,1.83
2023-01-13T04:29:20.562Z,2.50
2023-01-13T04:31:47.317Z,1.88
2023-01-13T04:34:15.387Z,4.05
2023-01-13T04:36:42.039Z,1.75
2023-01-13T04:39:08.716Z,4.57
2023-01-13T04:41:35.400Z,1.23
2023-01-13T04:44:02.051Z,2.55
2023-01-13T04:46:28.820Z,1.13
2023-01-13T04:48:55.586Z,1.55
2023-01-13T04:51:23.708Z,1.67
2023-01-13T04:53:50.375Z,1.42
2023-01-13T04:56:17.189Z,1.35
2023-01-13T04:58:43.898Z,4.72
2023-01-13T05:01:10.691Z,1.70
2023-01-13T05:03:37.418Z,5.53
2023-01-13T05:06:04.171Z,2.28
2023-01-13T05:08:32.189Z,2.05
2023-01-13T05:11:00.114Z,2.10
2023-01-13T05:13:26.810Z,2.70
2023-01-13T05:15:53.591Z,3.92
2023-01-13T05:18:20.641Z,2.17
2023-01-13T05:20:47.320Z,2.20
2023-01-13T05:23:14.102Z,4.32
2023-01-13T05:25:44.399Z,3.55
2023-01-13T05:28:11.658Z,1.65
2023-01-13T05:30:42.188Z,2.70
2023-01-13T05:33:08.919Z,4.63
2023-01-13T05:35:38.220Z,2.75
2023-01-13T05:38:05.001Z,3.58
2023-01-13T05:40:31.664Z,2.67
2023-01-13T05:43:04.453Z,2.65
2023-01-13T05:45:31.785Z,2.63
2023-01-13T05:47:58.641Z,1.20
2023-01-13T05:50:25.325Z,1.83
2023-01-13T05:52:52.043Z,2.17
2023-01-13T05:55:18.779Z,2.78
2023-01-13T05:57:45.445Z,1.70
2023-01-13T06:00:14.665Z,1.92
2023-01-13T06:02:41.512Z,2.95
2023-01-13T06:05:08.903Z,1.98
2023-01-13T06:07:35.617Z,2.80
2023-01-13T06:10:02.328Z,2.15
2023-01-13T06:12:29.184Z,2.05
2023-01-13T06:14:55.833Z,1.80
2023-01-13T06:17:23.959Z,2.47
2023-01-13T06:19:50.698Z,1.60
2023-01-13T06:22:19.171Z,1.67
2023-01-13T06:24:46.029Z,2.85
2023-01-13T06:27:13.180Z,1.95
2023-01-13T06:29:40.087Z,1.85
2023-01-13T06:32:11.838Z,1.58
2023-01-13T06:34:41.009Z,0.90
2023-01-13T06:37:07.717Z,1.45
2023-01-13T06:39:34.619Z,3.40
2023-01-13T06:42:02.969Z,1.25
2023-01-13T06:44:29.686Z,1.10
2023-01-13T06:46:56.432Z,1.85
2023-01-13T06:49:23.137Z,1.65
2023-01-13T06:51:51.194Z,1.98
2023-01-13T06:54:17.878Z,3.42
2023-01-13T06:56:44.522Z,1.55
2023-01-13T06:59:11.202Z,2.17
2023-01-13T07:01:37.984Z,2.33
2023-01-13T07:04:05.131Z,2.60
2023-01-13T07:06:31.811Z,2.08
2023-01-13T07:08:59.931Z,1.67
2023-01-13T07:11:26.737Z,2.55
2023-01-13T07:13:53.444Z,2.58
2023-01-13T07:16:20.162Z,1.80
2023-01-13T07:18:46.861Z,1.00
2023-01-13T07:21:13.574Z,2.30
2023-01-13T07:23:41.523Z,2.58
2023-01-13T07:26:11.311Z,1.45
2023-01-13T07:28:38.643Z,2.22
2023-01-13T07:31:12.253Z,3.35
2023-01-13T07:33:38.958Z,3.78
2023-01-13T07:36:06.671Z,5.68
2023-01-13T07:38:33.885Z,3.13
2023-01-13T07:41:00.928Z,3.15
2023-01-13T07:43:28.959Z,2.55
2023-01-13T07:45:56.336Z,3.33
2023-01-13T07:48:23.035Z,4.20
2023-01-13T07:50:49.767Z,2.13
2023-01-13T07:53:16.467Z,3.28
2023-01-13T07:55:43.683Z,1.63
2023-01-13T07:58:10.814Z,3.40
2023-01-13T08:00:40.269Z,3.47
2023-01-13T08:03:07.068Z,4.03
2023-01-13T08:05:34.976Z,3.63
2023-01-13T08:08:02.099Z,2.67
2023-01-13T08:10:28.806Z,3.33
2023-01-13T08:12:56.861Z,1.50
2023-01-13T08:15:24.105Z,3.78
2023-01-13T08:17:52.425Z,1.65
2023-01-13T08:20:19.580Z,2.35
2023-01-13T08:22:46.300Z,3.33
2023-01-13T08:25:13.132Z,3.17
2023-01-13T08:27:39.808Z,3.00
2023-01-13T08:30:08.243Z,2.40
2023-01-13T08:32:34.954Z,3.28
2023-01-13T08:35:03.128Z,2.25
2023-01-13T08:37:29.801Z,2.25
2023-01-13T08:39:56.490Z,3.90
2023-01-13T08:42:23.187Z,1.63
2023-01-13T08:44:49.872Z,1.58
2023-01-13T08:47:16.628Z,3.65
2023-01-13T08:49:43.384Z,2.20
2023-01-13T08:52:11.758Z,3.40
2023-01-13T08:54:38.922Z,5.68
2023-01-13T08:57:06.156Z,2.70
2023-01-13T08:59:33.474Z,3.50
2023-01-13T09:02:00.812Z,4.65
2023-01-13T09:04:28.938Z,3.05
2023-01-13T09:06:56.064Z,2.15
2023-01-13T09:09:24.201Z,2.22
2023-01-13T09:11:51.458Z,2.05
2023-01-13T09:14:19.804Z,2.42
2023-01-13T09:16:46.629Z,3.05
2023-01-13T09:19:13.384Z,2.53
2023-01-13T09:21:40.287Z,1.58
2023-01-13T09:24:07.647Z,3.03
2023-01-13T09:26:37.388Z,3.70
2023-01-13T09:29:04.788Z,3.92
2023-01-13T09:31:31.569Z,3.55
2023-01-13T09:33:58.260Z,8.40
2023-01-13T09:36:24.955Z,5.82
2023-01-13T09:38:51.719Z,4.40
2023-01-13T09:41:20.159Z,3.90
2023-01-13T09:43:54.107Z,4.53
2023-01-13T09:46:23.355Z,3.53
2023-01-13T09:48:50.085Z,3.80
2023-01-13T09:51:19.592Z,4.65
2023-01-13T09:53:53.055Z,4.20
2023-01-13T09:56:19.768Z,3.60
2023-01-13T09:58:49.283Z,3.08
2023-01-13T10:01:24.033Z,3.90
2023-01-13T10:03:50.914Z,3.03
2023-01-13T10:06:21.251Z,3.95
2023-01-13T10:08:49.338Z,4.18
2023-01-13T10:11:18.381Z,2.97
2023-01-13T10:13:45.063Z,3.67
2023-01-13T10:16:25.903Z,2.47
2023-01-13T10:19:04.060Z,4.88
2023-01-13T10:22:05.003Z,4.93
2023-01-13T10:25:06.705Z,3.85
2023-01-13T10:27:35.662Z,3.92
2023-01-13T10:30:12.476Z,1.98
2023-01-13T10:32:42.961Z,3.28
2023-01-13T10:35:09.644Z,3.28
2023-01-13T10:37:36.487Z,1.20
2023-01-13T10:40:04.725Z,2.75
2023-01-13T10:42:31.445Z,1.85
2023-01-13T10:44:59.641Z,3.00
2023-01-13T10:47:28.390Z,2.28
2023-01-13T10:50:20.700Z,2.15
2023-01-13T10:52:58.747Z,4.03
2023-01-13T10:55:27.735Z,1.65
2023-01-13T10:57:54.449Z,1.35
2023-01-13T11:00:27.924Z,3.08
2023-01-13T11:03:14.852Z,3.67
2023-01-13T11:05:48.944Z,5.80
2023-01-13T11:08:17.910Z,27.95
2023-01-13T11:10:46.156Z,8.05
2023-01-13T11:13:16.981Z,5.75
2023-01-13T11:15:47.314Z,5.32
2023-01-13T11:18:19.322Z,2.78
2023-01-13T11:20:49.464Z,1.92
2023-01-13T11:23:21.121Z,3.42
2023-01-13T11:25:52.043Z,4.88
2023-01-13T11:28:42.051Z,2.42
2023-01-13T11:31:14.844Z,3.00
2023-01-13T11:33:46.890Z,2.92
2023-01-13T11:36:20.376Z,3.13
2023-01-13T11:38:50.764Z,2.67
2023-01-13T11:41:42.009Z,2.70
2023-01-13T11:44:17.917Z,10.23
2023-01-13T11:46:47.940Z,3.63
2023-01-13T11:49:24.354Z,5.70
2023-01-13T11:51:58.468Z,3.08
2023-01-13T11:54:37.212Z,3.63
2023-01-13T11:57:32.445Z,2.80
2023-01-13T12:00:13.873Z,2.97
2023-01-13T12:02:52.486Z,3.65
2023-01-13T12:05:26.612Z,2.40
2023-01-13T12:08:06.886Z,24.80
2023-01-13T12:10:44.394Z,18.15
2023-01-13T12:13:24.000Z,3.85
2023-01-13T12:16:05.498Z,5.07
2023-01-13T12:18:42.909Z,5.72
2023-01-13T12:21:18.760Z,3.78
2023-01-13T12:23:57.910Z,2.90
2023-01-13T12:26:24.787Z,5.47
2023-01-13T12:28:56.210Z,11.25
2023-01-13T12:31:24.707Z,6.65
2023-01-13T12:34:09.896Z,1.98
2023-01-13T12:36:52.090Z,6.80
2023-01-13T12:39:28.206Z,6.13
2023-01-13T12:41:59.252Z,3.22
2023-01-13T12:44:26.189Z,6.13
2023-01-13T12:46:54.244Z,6.03
2023-01-13T12:49:29.505Z,7.03
2023-01-13T12:52:14.977Z,6.13
2023-01-13T12:55:18.429Z,8.50
2023-01-13T12:57:58.576Z,11.02
2023-01-13T13:00:31.947Z,9.13
2023-01-13T13:03:27.183Z,9.00
2023-01-13T13:06:02.019Z,6.35
2023-01-13T13:08:45.220Z,6.45
2023-01-13T13:11:34.730Z,3.35
2023-01-13T13:14:04.584Z,5.75
2023-01-13T13:16:47.212Z,5.88
2023-01-13T13:19:45.789Z,6.45
2023-01-13T13:22:38.122Z,3.05
2023-01-13T13:25:21.658Z,4.95
2023-01-13T13:28:01.442Z,3.15
2023-01-13T13:30:33.703Z,4.25
2023-01-13T13:33:15.413Z,7.95
2023-01-13T13:35:53.790Z,3.60
2023-01-13T13:38:47.878Z,4.35
2023-01-13T13:41:21.088Z,4.50
2023-01-13T13:43:48.084Z,6.32
2023-01-13T13:46:28.273Z,4.65
2023-01-13T13:48:55.309Z,6.85
2023-01-13T13:51:26.845Z,9.43
2023-01-13T13:53:53.993Z,4.85
2023-01-13T13:56:24.185Z,6.63
2023-01-13T13:58:51.119Z,7.13
2023-01-13T14:01:24.357Z,5.35
2023-01-13T14:04:06.706Z,4.50
2023-01-13T14:06:34.045Z,3.03
2023-01-13T14:09:02.636Z,3.42
2023-01-13T14:11:30.646Z,5.10
2023-01-13T14:14:05.572Z,5.40
2023-01-13T14:16:33.872Z,4.57
2023-01-13T14:19:01.417Z,5.93
2023-01-13T14:21:30.694Z,3.80
2023-01-13T14:24:00.287Z,5.10
2023-01-13T14:26:29.315Z,3.70
2023-01-13T14:28:57.119Z,4.32
2023-01-13T14:31:24.729Z,4.60
2023-01-13T14:33:54.151Z,5.57
2023-01-13T14:36:23.036Z,8.55
2023-01-13T14:39:24.166Z,4.78
2023-01-13T14:41:50.929Z,7.10
2023-01-13T14:44:23.216Z,6.25
2023-01-13T14:46:50.555Z,7.90
2023-01-13T14:49:24.295Z,5.68
2023-01-13T14:51:51.253Z,6.30
2023-01-13T14:54:57.804Z,5.60
2023-01-13T14:57:27.429Z,7.97
2023-01-13T15:00:04.018Z,6.45
2023-01-13T15:02:44.737Z,4.47
2023-01-13T15:05:44.664Z,5.93
2023-01-13T15:08:41.491Z,6.75
2023-01-13T15:11:20.534Z,7.60
2023-01-13T15:13:55.578Z,6.75
2023-01-13T15:16:24.238Z,9.55
2023-01-13T15:18:51.240Z,9.60
2023-01-13T15:21:19.313Z,5.70
2023-01-13T15:23:45.999Z,7.20
2023-01-13T15:26:19.536Z,7.32
2023-01-13T15:28:47.775Z,7.70
2023-01-13T15:31:14.552Z,5.25
2023-01-13T15:33:41.681Z,7.20
2023-01-13T15:36:18.649Z,7.55
2023-01-13T15:38:45.326Z,9.65
2023-01-13T15:41:13.497Z,8.75
2023-01-13T15:43:40.648Z,8.38
2023-01-13T15:46:13.976Z,8.60
2023-01-13T15:48:40.729Z,9.35
2023-01-13T15:51:08.701Z,10.95
2023-01-13T15:53:35.470Z,10.20
2023-01-13T15:56:03.335Z,7.30
2023-01-13T15:58:29.991Z,9.07
2023-01-13T16:00:56.797Z,8.00
2023-01-13T16:03:24.994Z,10.55
2023-01-13T16:05:51.795Z,10.23
2023-01-13T16:08:20.141Z,11.43
2023-01-13T16:10:47.481Z,6.07
2023-01-13T16:13:14.792Z,6.88
2023-01-13T16:15:44.613Z,6.35
2023-01-13T16:18:17.046Z,7.15
2023-01-13T16:20:45.384Z,7.07
2023-01-13T16:23:12.313Z,8.73
2023-01-13T16:25:40.229Z,8.00
2023-01-13T16:28:06.983Z,7.15
2023-01-13T16:30:35.748Z,7.05
2023-01-13T16:33:03.118Z,6.63
2023-01-13T16:35:29.899Z,8.77
2023-01-13T16:37:58.443Z,6.50
2023-01-13T16:40:27.091Z,5.28
2023-01-13T16:42:53.793Z,10.70
2023-01-13T16:45:20.456Z,10.57
2023-01-13T16:47:47.271Z,12.10
2023-01-13T16:50:23.473Z,16.52
2023-01-13T16:52:50.255Z,13.52
2023-01-13T16:55:18.316Z,9.02
2023-01-13T16:57:45.027Z,8.15
2023-01-13T17:00:12.930Z,6.90
2023-01-13T17:02:39.935Z,6.40
2023-01-13T17:05:07.236Z,7.60
2023-01-13T17:07:34.011Z,8.00
2023-01-13T17:10:01.319Z,9.05
2023-01-13T17:12:29.398Z,8.52
2023-01-13T17:14:56.060Z,6.82
2023-01-13T17:17:25.170Z,7.25
2023-01-13T17:19:52.865Z,6.68
2023-01-13T17:22:20.035Z,7.35
2023-01-13T17:24:48.688Z,4.45
2023-01-13T17:27:15.644Z,5.38
2023-01-13T17:29:43.989Z,7.15
2023-01-13T17:32:15.369Z,8.05
2023-01-13T17:34:42.961Z,8.50
2023-01-13T17:37:10.034Z,5.35
2023-01-13T17:39:36.729Z,6.50
2023-01-13T17:42:03.562Z,7.82
2023-01-13T17:44:30.227Z,6.10
2023-01-13T17:46:58.318Z,5.07
2023-01-13T17:49:25.264Z,9.18
2023-01-13T17:51:51.999Z,13.60
2023-01-13T17:54:19.356Z,8.73
2023-01-13T17:56:46.219Z,7.35
2023-01-13T17:59:13.894Z,8.10
2023-01-13T18:01:40.991Z,9.52
2023-01-13T18:04:13.801Z,9.68
2023-01-13T18:06:40.507Z,7.65
2023-01-13T18:09:07.238Z,8.82
2023-01-13T18:11:33.946Z,6.47
2023-01-13T18:14:00.766Z,6.82
2023-01-13T18:16:30.248Z,7.53
2023-01-13T18:18:57.963Z,7.13
2023-01-13T18:21:26.780Z,5.85
2023-01-13T18:23:53.510Z,8.18
2023-01-13T18:26:20.662Z,6.50
2023-01-13T18:28:47.320Z,8.05
2023-01-13T18:31:14.067Z,5.38
2023-01-13T18:33:40.747Z,6.30
2023-01-13T18:36:08.130Z,7.93
2023-01-13T18:38:36.231Z,11.15
2023-01-13T18:41:05.015Z,8.13
2023-01-13T18:43:33.482Z,9.20
2023-01-13T18:46:00.249Z,7.53
2023-01-13T18:48:26.937Z,7.68
2023-01-13T18:50:53.690Z,7.88
2023-01-13T18:53:20.487Z,5.70
2023-01-13T18:55:48.558Z,5.60
2023-01-13T18:58:15.282Z,7.68
2023-01-13T19:00:41.961Z,9.48
2023-01-13T19:05:40.208Z,10.43
2023-01-13T19:08:06.986Z,9.80
2023-01-13T19:10:33.828Z,10.82
2023-01-13T19:13:01.977Z,7.97
2023-01-13T19:15:28.802Z,8.18
2023-01-13T19:17:55.578Z,5.47
2023-01-13T19:20:22.399Z,9.07
2023-01-13T19:22:49.085Z,8.13
2023-01-13T19:25:15.873Z,8.18
2023-01-13T19:27:42.596Z,6.93
2023-01-13T19:30:12.139Z,11.80
2023-01-13T19:32:38.800Z,8.35
2023-01-13T19:35:06.365Z,7.05
2023-01-13T19:37:33.009Z,11.80
2023-01-13T19:39:59.800Z,10.82
2023-01-13T19:42:26.843Z,9.77
2023-01-13T19:44:53.540Z,12.77
2023-01-13T19:47:21.610Z,10.73
2023-01-13T19:49:48.428Z,9.68
2023-01-13T19:52:15.384Z,9.25
2023-01-13T19:54:44.430Z,7.47
2023-01-13T19:57:11.446Z,10.95
2023-01-13T19:59:38.281Z,9.70
2023-01-13T20:02:05.073Z,7.53
2023-01-13T20:04:33.177Z,9.75
2023-01-13T20:07:00.013Z,7.68
2023-01-13T20:09:26.868Z,8.00
2023-01-13T20:11:53.514Z,11.60
2023-01-13T20:14:20.925Z,8.52
2023-01-13T20:16:47.691Z,7.30
2023-01-13T20:19:15.372Z,8.35
2023-01-13T20:21:43.740Z,9.30
2023-01-13T20:24:15.224Z,6.32
2023-01-13T20:26:41.934Z,10.52
2023-01-13T20:29:08.639Z,9.25
2023-01-13T20:31:35.520Z,8.65
2023-01-13T20:34:02.215Z,7.53
2023-01-13T20:36:32.370Z,7.85
2023-01-13T20:39:01.559Z,7.53
2023-01-13T20:41:28.278Z,7.32
2023-01-13T20:43:55.198Z,9.85
2023-01-13T20:46:22.052Z,7.50
2023-01-13T20:48:49.152Z,7.63
2023-01-13T20:51:15.887Z,12.52
2023-01-13T20:53:42.555Z,7.95
2023-01-13T20:56:10.623Z,7.03
2023-01-13T20:58:38.410Z,8.55
2023-01-13T21:01:05.693Z,10.27
2023-01-13T21:03:32.532Z,8.85
2023-01-13T21:05:59.286Z,6.10
2023-01-13T21:08:25.994Z,7.55
2023-01-13T21:10:59.755Z,9.75
2023-01-13T21:13:28.011Z,11.82
2023-01-13T21:15:54.743Z,9.15
2023-01-13T21:18:21.561Z,10.00
2023-01-13T21:20:48.224Z,11.05
2023-01-13T21:23:14.978Z,11.45
2023-01-13T21:25:41.661Z,5.00
2023-01-13T21:28:08.487Z,8.75
2023-01-13T21:30:37.237Z,5.20
2023-01-13T21:33:04.198Z,6.55
2023-01-13T21:35:31.042Z,7.38
2023-01-13T21:37:57.765Z,9.73
2023-01-13T21:40:24.452Z,9.15
2023-01-13T21:42:51.131Z,5.30
2023-01-13T21:45:17.900Z,9.43
2023-01-13T21:47:46.045Z,7.60
2023-01-13T21:50:14.738Z,7.95
2023-01-13T21:52:41.455Z,8.95
2023-01-13T21:55:09.314Z,8.68
2023-01-13T21:57:36.072Z,3.75
2023-01-13T22:00:03.064Z,5.00
2023-01-13T22:02:29.884Z,9.35
2023-01-13T22:04:58.709Z,6.65
2023-01-13T22:07:25.466Z,5.95
2023-01-13T22:09:52.135Z,6.97
2023-01-13T22:12:18.865Z,7.75
2023-01-13T22:14:45.544Z,7.22
2023-01-13T22:17:14.141Z,8.02
2023-01-13T22:19:40.837Z,6.55
2023-01-13T22:22:08.949Z,10.63
2023-01-13T22:24:35.648Z,8.20
2023-01-13T22:27:02.368Z,7.97
2023-01-13T22:29:29.027Z,8.52
2023-01-13T22:31:55.720Z,9.68
2023-01-13T22:34:22.588Z,5.57
2023-01-13T22:36:49.305Z,5.68
2023-01-13T22:39:17.467Z,5.47
2023-01-13T22:41:44.120Z,8.02
2023-01-13T22:44:10.816Z,10.10
2023-01-13T22:46:37.507Z,8.68
2023-01-13T22:49:04.260Z,7.03
2023-01-13T22:51:30.958Z,8.80
2023-01-13T22:53:57.679Z,7.57
2023-01-13T22:56:26.744Z,4.93
2023-01-13T22:58:54.342Z,6.22
2023-01-13T23:01:21.417Z,8.55
2023-01-13T23:03:48.372Z,7.18
2023-01-13T23:06:15.327Z,5.68
2023-01-13T23:08:42.069Z,7.57
2023-01-13T23:11:11.893Z,9.07
2023-01-13T23:13:40.412Z,6.43
2023-01-13T23:16:09.542Z,7.22
2023-01-13T23:18:37.617Z,7.50
2023-01-13T23:21:06.316Z,7.07
2023-01-13T23:23:34.032Z,6.95
2023-01-13T23:26:01.075Z,5.20
2023-01-13T23:28:27.953Z,7.60
2023-01-13T23:30:56.193Z,7.78
2023-01-13T23:33:22.938Z,7.45
2023-01-13T23:35:56.149Z,7.00
2023-01-13T23:38:23.065Z,3.83
2023-01-13T23:40:49.802Z,4.13
2023-01-13T23:43:16.605Z,9.05
2023-01-13T23:45:43.685Z,6.75
2023-01-13T23:48:12.061Z,5.57
2023-01-13T23:50:38.707Z,10.05
2023-01-13T23:53:05.454Z,4.60
2023-01-13T23:55:32.144Z,5.30
2023-01-13T23:57:58.825Z,6.80
